createdAt,value
2019-05-07T00:01:06.691Z,94173.28
2019-05-07T00:03:36.168Z,94174.23
2019-05-07T00:06:05.754Z,94172.22
2019-05-07T00:08:35.277Z,94171.63
2019-05-07T00:11:04.772Z,94178.45
2019-05-07T00:13:34.224Z,94178.45
2019-05-07T00:16:03.690Z,94180.75
2019-05-07T00:18:33.177Z,94176.53
2019-05-07T00:21:03.509Z,94175.69
2019-05-07T00:23:33.143Z,94169.30
2019-05-07T00:26:03.736Z,94173.45
2019-05-07T00:28:33.182Z,94161.92
2019-05-07T00:31:03.015Z,94164.84
2019-05-07T00:33:33.620Z,94165.02
2019-05-07T00:36:28.451Z,94172.11
2019-05-07T00:39:12.401Z,94168.39
2019-05-07T00:41:52.226Z,94170.09
2019-05-07T00:44:22.335Z,94167.75
2019-05-07T00:46:53.538Z,94159.28
2019-05-07T00:49:25.063Z,94174.59
2019-05-07T00:51:54.521Z,94179.31
2019-05-07T00:54:24.001Z,94182.95
2019-05-07T00:56:53.507Z,94165.79
2019-05-07T00:59:22.971Z,94166.52
2019-05-07T01:01:52.894Z,94178.94
2019-05-07T01:04:23.050Z,94178.90
2019-05-07T01:06:53.554Z,94179.83
2019-05-07T01:09:23.115Z,94174.62
2019-05-07T01:11:52.670Z,94174.12
2019-05-07T01:14:22.887Z,94174.17
2019-05-07T01:16:53.014Z,94181.17
2019-05-07T01:19:22.505Z,94189.69
2019-05-07T01:21:52.595Z,94185.97
2019-05-07T01:24:23.235Z,94184.09
2019-05-07T01:26:53.154Z,94174.17
2019-05-07T01:29:22.758Z,94175.59
2019-05-07T01:31:58.308Z,94178.53
2019-05-07T01:34:43.027Z,94177.19
2019-05-07T01:37:12.599Z,94181.39
2019-05-07T01:39:42.276Z,94183.75
2019-05-07T01:42:12.776Z,94183.82
2019-05-07T01:44:42.339Z,94189.93
2019-05-07T01:47:13.044Z,94180.81
2019-05-07T01:49:42.694Z,94186.18
2019-05-07T01:52:13.324Z,94193.09
2019-05-07T01:54:43.114Z,94201.59
2019-05-07T01:57:12.582Z,94202.55
2019-05-07T01:59:42.761Z,94196.22
2019-05-07T02:02:34.086Z,94208.93
2019-05-07T02:05:15.324Z,94212.52
2019-05-07T02:07:52.144Z,94199.16
2019-05-07T02:10:39.443Z,94207.11
2019-05-07T02:13:08.928Z,94195.23
2019-05-07T02:15:38.405Z,94200.42
2019-05-07T02:18:07.912Z,94213.30
2019-05-07T02:20:37.739Z,94206.52
2019-05-07T02:23:07.230Z,94208.28
2019-05-07T02:25:36.720Z,94204.29
2019-05-07T02:28:06.192Z,94201.65
2019-05-07T02:30:35.640Z,94219.57
2019-05-07T02:33:05.103Z,94226.33
2019-05-07T02:35:34.621Z,94230.75
2019-05-07T02:38:18.444Z,94218.54
2019-05-07T02:40:53.470Z,94219.53
2019-05-07T02:43:23.331Z,94216.80
2019-05-07T02:46:21.448Z,94207.28
2019-05-07T02:48:42.591Z,94220.84
2019-05-07T02:51:23.964Z,94223.75
2019-05-07T02:54:13.353Z,94216.10
2019-05-07T02:56:43.424Z,94212.69
2019-05-07T02:59:13.696Z,94226.72
2019-05-07T03:01:43.694Z,94230.89
2019-05-07T03:04:13.227Z,94231.66
2019-05-07T03:06:44.273Z,94247.47
2019-05-07T03:09:14.777Z,94233.65
2019-05-07T03:11:44.340Z,94237.69
2019-05-07T03:14:14.339Z,94251.38
2019-05-07T03:16:48.915Z,94243.88
2019-05-07T03:19:15.483Z,94236.88
2019-05-07T03:21:55.022Z,94233.42
2019-05-07T03:24:46.941Z,94237.81
2019-05-07T03:27:16.429Z,94226.02
2019-05-07T03:29:53.716Z,94230.06
2019-05-07T03:32:37.931Z,94238.98
2019-05-07T03:35:38.303Z,94233.11
2019-05-07T03:38:07.972Z,94237.38
2019-05-07T03:40:37.648Z,94245.72
2019-05-07T03:43:07.107Z,94256.94
2019-05-07T03:45:55.529Z,94242.30
2019-05-07T03:48:26.492Z,94257.70
2019-05-07T03:50:55.937Z,94257.12
2019-05-07T03:53:25.434Z,94257.07
2019-05-07T03:55:54.937Z,94264.25
2019-05-07T03:58:24.397Z,94273.77
2019-05-07T04:00:54.102Z,94276.02
2019-05-07T04:03:24.758Z,94283.77
2019-05-07T04:05:54.625Z,94276.87
2019-05-07T04:08:24.191Z,94272.28
2019-05-07T04:10:54.216Z,94271.77
2019-05-07T04:13:24.543Z,94276.13
2019-05-07T04:15:54.278Z,94274.92
2019-05-07T04:18:24.106Z,94275.55
2019-05-07T04:20:54.145Z,94277.03
2019-05-07T04:23:23.842Z,94287.95
2019-05-07T04:26:15.793Z,94274.61
2019-05-07T04:28:54.131Z,94288.33
2019-05-07T04:31:25.611Z,94290.44
2019-05-07T04:33:56.939Z,94292.11
2019-05-07T04:36:28.772Z,94289.26
2019-05-07T04:38:58.284Z,94286.59
2019-05-07T04:41:27.778Z,94288.39
2019-05-07T04:44:03.447Z,94288.39
2019-05-07T04:46:33.405Z,94298.78
2019-05-07T04:49:03.908Z,94298.47
2019-05-07T04:51:53.125Z,94292.27
2019-05-07T04:54:23.753Z,94289.33
2019-05-07T04:56:53.591Z,94297.02
2019-05-07T04:59:23.768Z,94302.36
2019-05-07T05:02:06.955Z,94306.80
2019-05-07T05:04:36.428Z,94305.09
2019-05-07T05:07:05.914Z,94309.84
2019-05-07T05:09:35.385Z,94303.35
2019-05-07T05:12:04.898Z,94308.69
2019-05-07T05:14:34.365Z,94303.19
2019-05-07T05:17:03.868Z,94304.12
2019-05-07T05:19:33.355Z,94309.09
2019-05-07T05:22:24.879Z,94310.05
2019-05-07T05:25:28.357Z,94310.78
2019-05-07T05:27:57.841Z,94318.28
2019-05-07T05:30:45.804Z,94316.69
2019-05-07T05:33:15.367Z,94316.17
2019-05-07T05:35:44.945Z,94317.61
2019-05-07T05:38:14.442Z,94314.83
2019-05-07T05:40:43.950Z,94315.31
2019-05-07T05:43:23.343Z,94328.00
2019-05-07T05:45:54.519Z,94325.06
2019-05-07T05:48:24.060Z,94330.34
2019-05-07T05:51:15.557Z,94329.12
2019-05-07T05:53:52.946Z,94320.63
2019-05-07T05:56:32.406Z,94338.37
2019-05-07T05:59:47.422Z,94339.05
2019-05-07T06:02:32.547Z,94344.03
2019-05-07T06:05:36.101Z,94351.45
2019-05-07T06:08:32.575Z,94347.40
2019-05-07T06:11:23.715Z,94360.00
2019-05-07T06:14:02.725Z,94361.98
2019-05-07T06:16:36.800Z,94361.09
2019-05-07T06:19:17.504Z,94353.36
2019-05-07T06:22:04.754Z,94363.46
2019-05-07T06:24:48.036Z,94353.36
2019-05-07T06:27:17.519Z,94360.91
2019-05-07T06:29:46.985Z,94356.34
2019-05-07T06:32:18.160Z,94360.24
2019-05-07T06:34:47.646Z,94363.66
2019-05-07T06:37:17.221Z,94373.53
2019-05-07T06:39:53.445Z,94373.31
2019-05-07T06:43:00.205Z,94363.77
2019-05-07T06:45:35.315Z,94360.21
2019-05-07T06:48:04.387Z,94358.58
2019-05-07T06:50:33.901Z,94367.66
2019-05-07T06:53:03.362Z,94365.75
2019-05-07T06:55:32.973Z,94355.00
2019-05-07T06:58:03.148Z,94363.53
2019-05-07T07:00:52.620Z,94359.44
2019-05-07T07:03:41.983Z,94355.20
2019-05-07T07:06:20.373Z,94351.56
2019-05-07T07:09:08.791Z,94357.92
2019-05-07T07:11:44.513Z,94351.91
2019-05-07T07:14:14.016Z,94358.55
2019-05-07T07:16:43.906Z,94359.54
2019-05-07T07:19:13.384Z,94367.76
2019-05-07T07:21:42.865Z,94367.27
2019-05-07T07:24:12.782Z,94359.44
2019-05-07T07:26:42.399Z,94371.14
2019-05-07T07:29:13.678Z,94374.78
2019-05-07T07:31:48.025Z,94379.63
2019-05-07T07:34:17.810Z,94380.46
2019-05-07T07:37:09.758Z,94383.98
2019-05-07T07:39:36.321Z,94379.27
2019-05-07T07:42:06.472Z,94391.84
2019-05-07T07:44:35.992Z,94374.72
2019-05-07T07:47:05.566Z,94378.88
2019-05-07T07:49:35.067Z,94391.19
2019-05-07T07:52:04.664Z,94392.21
2019-05-07T07:54:34.205Z,94386.25
2019-05-07T07:57:21.693Z,94384.97
2019-05-07T08:00:11.796Z,94380.46
2019-05-07T08:02:47.153Z,94403.21
2019-05-07T08:05:16.639Z,94362.88
2019-05-07T08:07:46.114Z,94406.52
2019-05-07T08:10:15.840Z,94398.73
2019-05-07T08:12:45.721Z,94406.02
2019-05-07T08:15:20.875Z,94401.95
2019-05-07T08:17:46.465Z,94405.34
2019-05-07T08:20:16.448Z,94419.45
2019-05-07T08:22:45.955Z,94411.30
2019-05-07T08:25:15.854Z,94401.78
2019-05-07T08:27:45.381Z,94427.68
2019-05-07T08:30:19.121Z,94414.55
2019-05-07T08:33:02.254Z,94416.66
2019-05-07T08:35:41.999Z,94415.03
2019-05-07T08:38:12.742Z,94436.55
2019-05-07T08:40:42.547Z,94417.30
2019-05-07T08:43:12.677Z,94414.78
2019-05-07T08:46:11.972Z,94439.93
2019-05-07T08:48:45.391Z,94425.44
2019-05-07T08:51:14.853Z,94428.70
2019-05-07T08:53:44.342Z,94423.08
2019-05-07T08:56:13.907Z,94423.20
2019-05-07T08:58:43.656Z,94435.80
2019-05-07T09:01:13.156Z,94416.14
2019-05-07T09:03:43.159Z,94433.17
2019-05-07T09:06:14.272Z,94427.74
2019-05-07T09:08:43.807Z,94422.00
2019-05-07T09:11:13.512Z,94417.52
2019-05-07T09:13:43.024Z,94425.41
2019-05-07T09:16:13.084Z,94427.71
2019-05-07T09:18:42.678Z,94432.71
2019-05-07T09:21:12.669Z,94431.97
2019-05-07T09:23:42.581Z,94433.52
2019-05-07T09:26:14.199Z,94430.19
2019-05-07T09:29:05.326Z,94444.31
2019-05-07T09:31:53.763Z,94440.41
2019-05-07T09:34:24.501Z,94455.55
2019-05-07T09:36:55.700Z,94449.03
2019-05-07T09:39:25.181Z,94436.85
2019-05-07T09:41:54.671Z,94449.92
2019-05-07T09:44:24.189Z,94435.81
2019-05-07T09:46:53.680Z,94451.95
2019-05-07T09:49:23.147Z,94450.91
2019-05-07T09:51:52.614Z,94454.83
2019-05-07T09:54:23.083Z,94468.71
2019-05-07T09:56:52.662Z,94457.16
2019-05-07T09:59:22.229Z,94461.07
2019-05-07T10:01:51.943Z,94459.45
2019-05-07T10:04:22.423Z,94458.95
2019-05-07T10:06:52.036Z,94468.08
2019-05-07T10:09:22.293Z,94476.13
2019-05-07T10:12:12.182Z,94465.64
2019-05-07T10:14:42.100Z,94472.02
2019-05-07T10:17:17.377Z,94476.25
2019-05-07T10:19:47.639Z,94461.42
2019-05-07T10:22:17.109Z,94459.17
2019-05-07T10:24:46.573Z,94469.25
2019-05-07T10:27:16.185Z,94472.48
2019-05-07T10:29:46.282Z,94472.90
2019-05-07T10:32:15.752Z,94484.27
2019-05-07T10:34:45.383Z,94495.78
2019-05-07T10:37:14.887Z,94473.30
2019-05-07T10:39:44.401Z,94471.53
2019-05-07T10:42:13.890Z,94479.17
2019-05-07T10:44:49.540Z,94492.14
2019-05-07T10:47:44.016Z,94478.92
2019-05-07T10:50:33.094Z,94490.59
2019-05-07T10:52:52.811Z,94495.81
2019-05-07T10:55:22.646Z,94494.67
2019-05-07T10:57:52.837Z,94486.23
2019-05-07T11:00:25.786Z,94488.18
2019-05-07T11:02:55.306Z,94498.17
2019-05-07T11:05:24.782Z,94501.66
2019-05-07T11:07:54.412Z,94503.38
2019-05-07T11:10:23.944Z,94505.58
2019-05-07T11:12:53.432Z,94502.80
2019-05-07T11:15:23.373Z,94508.19
2019-05-07T11:18:02.719Z,94515.44
2019-05-07T11:20:32.342Z,94509.05
2019-05-07T11:23:02.609Z,94514.16
2019-05-07T11:25:32.348Z,94522.16
2019-05-07T11:28:02.827Z,94534.20
2019-05-07T11:30:32.500Z,94541.73
2019-05-07T11:33:02.734Z,94550.76
2019-05-07T11:35:32.338Z,94545.72
2019-05-07T11:38:16.782Z,94538.51
2019-05-07T11:40:34.802Z,94553.43
2019-05-07T11:43:23.662Z,94536.82
2019-05-07T11:46:13.048Z,94548.68
2019-05-07T11:48:52.244Z,94548.72
2019-05-07T11:51:33.426Z,94571.09
2019-05-07T11:54:13.651Z,94564.09
2019-05-07T11:56:43.225Z,94562.22
2019-05-07T11:59:13.575Z,94586.38
2019-05-07T12:01:49.717Z,94565.72
2019-05-07T12:04:19.392Z,94573.13
2019-05-07T12:06:48.926Z,94577.13
2019-05-07T12:09:18.468Z,94579.84
2019-05-07T12:11:47.945Z,94580.09
2019-05-07T12:14:28.150Z,94582.13
2019-05-07T12:16:48.677Z,94580.13
2019-05-07T12:19:18.192Z,94575.95
2019-05-07T12:21:47.709Z,94582.13
2019-05-07T12:24:17.269Z,94575.95
2019-05-07T12:26:46.815Z,94581.75
2019-05-07T12:29:16.322Z,94601.27
2019-05-07T12:31:55.808Z,94610.34
2019-05-07T12:34:50.102Z,94578.16
2019-05-07T12:37:19.602Z,94583.27
2019-05-07T12:39:49.125Z,94582.40
2019-05-07T12:42:18.648Z,94587.75
2019-05-07T12:44:48.178Z,94583.33
2019-05-07T12:47:18.377Z,94601.44
2019-05-07T12:49:47.939Z,94587.05
2019-05-07T12:52:24.589Z,94578.55
2019-05-07T12:55:12.000Z,94606.61
2019-05-07T12:57:42.100Z,94612.48
2019-05-07T13:00:32.190Z,94593.05
2019-05-07T13:03:26.020Z,94597.13
2019-05-07T13:05:55.573Z,94594.52
2019-05-07T13:08:25.075Z,94598.17
2019-05-07T13:10:54.555Z,94605.14
2019-05-07T13:13:24.075Z,94613.30
2019-05-07T13:15:53.552Z,94606.15
2019-05-07T13:18:23.078Z,94620.30
2019-05-07T13:20:52.623Z,94612.34
2019-05-07T13:23:22.560Z,94623.62
2019-05-07T13:25:52.504Z,94615.15
2019-05-07T13:28:22.007Z,94615.64
2019-05-07T13:30:52.622Z,94602.20
2019-05-07T13:33:22.946Z,94613.67
2019-05-07T13:35:53.201Z,94612.37
2019-05-07T13:38:42.665Z,94615.61
2019-05-07T13:41:31.207Z,94617.23
2019-05-07T13:44:26.301Z,94617.08
2019-05-07T13:47:15.140Z,94625.07
2019-05-07T13:49:45.189Z,94625.42
2019-05-07T13:52:16.189Z,94629.70
2019-05-07T13:54:45.773Z,94626.14
2019-05-07T13:57:15.560Z,94633.57
2019-05-07T13:59:45.391Z,94632.33
2019-05-07T14:02:17.549Z,94632.73
2019-05-07T14:04:47.072Z,94637.55
2019-05-07T14:07:16.977Z,94631.05
2019-05-07T14:09:46.513Z,94631.77
2019-05-07T14:12:16.216Z,94630.80
2019-05-07T14:14:46.385Z,94637.30
2019-05-07T14:17:15.888Z,94654.29
2019-05-07T14:19:45.418Z,94649.28
2019-05-07T14:22:18.852Z,94655.05
2019-05-07T14:24:46.165Z,94649.04
2019-05-07T14:27:15.799Z,94653.00
2019-05-07T14:29:45.375Z,94647.73
2019-05-07T14:32:24.043Z,94654.05
2019-05-07T14:35:07.125Z,94666.92
2019-05-07T14:37:42.697Z,94672.77
2019-05-07T14:40:13.105Z,94675.69
2019-05-07T14:42:47.320Z,94681.23
2019-05-07T14:45:16.821Z,94679.74
2019-05-07T14:47:46.469Z,94678.93
2019-05-07T14:50:16.327Z,94676.98
2019-05-07T14:52:45.920Z,94677.67
2019-05-07T14:55:15.412Z,94682.39
2019-05-07T14:57:44.949Z,94685.45
2019-05-07T15:00:15.326Z,94675.02
2019-05-07T15:02:44.802Z,94680.80
2019-05-07T15:05:14.525Z,94674.82
2019-05-07T15:07:44.134Z,94682.93
2019-05-07T15:10:13.730Z,94683.08
2019-05-07T15:12:43.458Z,94671.80
2019-05-07T15:15:13.147Z,94678.80
2019-05-07T15:17:48.720Z,94688.05
2019-05-07T15:20:18.300Z,94694.91
2019-05-07T15:23:11.944Z,94694.40
2019-05-07T15:25:41.990Z,94686.91
2019-05-07T15:28:12.270Z,94702.28
2019-05-07T15:30:54.274Z,94687.81
2019-05-07T15:33:23.932Z,94691.98
2019-05-07T15:35:53.457Z,94688.38
2019-05-07T15:38:22.938Z,94689.29
2019-05-07T15:40:52.548Z,94692.75
2019-05-07T15:43:22.131Z,94680.84
2019-05-07T15:45:52.444Z,94693.44
2019-05-07T15:48:22.138Z,94685.42
2019-05-07T15:50:52.081Z,94691.94
2019-05-07T15:53:25.987Z,94698.48
2019-05-07T15:55:55.481Z,94698.86
2019-05-07T15:58:25.004Z,94704.99
2019-05-07T16:00:54.504Z,94703.03
2019-05-07T16:03:32.795Z,94704.25
2019-05-07T16:06:03.845Z,94713.16
2019-05-07T16:08:36.907Z,94714.23
2019-05-07T16:11:06.444Z,94716.66
2019-05-07T16:13:38.349Z,94721.41
2019-05-07T16:16:07.881Z,94723.00
2019-05-07T16:18:56.303Z,94724.63
2019-05-07T16:21:25.804Z,94727.90
2019-05-07T16:23:55.365Z,94731.00
2019-05-07T16:26:24.837Z,94728.22
2019-05-07T16:28:54.340Z,94734.13
2019-05-07T16:31:24.651Z,94729.20
2019-05-07T16:33:54.431Z,94735.22
2019-05-07T16:36:23.957Z,94731.08
2019-05-07T16:38:53.452Z,94743.94
2019-05-07T16:41:22.987Z,94748.63
2019-05-07T16:43:52.544Z,94737.25
2019-05-07T16:46:22.519Z,94754.05
2019-05-07T16:48:52.156Z,94745.91
2019-05-07T16:51:22.305Z,94742.98
2019-05-07T16:53:52.534Z,94741.83
2019-05-07T16:56:22.703Z,94745.30
2019-05-07T16:59:02.311Z,94752.16
2019-05-07T17:01:32.554Z,94748.42
2019-05-07T17:04:02.863Z,94759.56
2019-05-07T17:06:32.598Z,94754.53
2019-05-07T17:09:10.253Z,94752.19
2019-05-07T17:11:40.072Z,94747.84
2019-05-07T17:14:09.601Z,94759.91
2019-05-07T17:16:40.025Z,94764.31
2019-05-07T17:19:11.837Z,94765.02
2019-05-07T17:21:43.134Z,94776.19
2019-05-07T17:24:12.779Z,94776.94
2019-05-07T17:26:42.511Z,94785.22
2019-05-07T17:29:12.180Z,94781.95
2019-05-07T17:31:42.458Z,94776.73
2019-05-07T17:34:12.210Z,94779.34
2019-05-07T17:36:42.321Z,94786.47
2019-05-07T17:39:12.353Z,94787.98
2019-05-07T17:41:43.038Z,94794.73
2019-05-07T17:44:12.640Z,94795.83
2019-05-07T17:46:42.895Z,94800.70
2019-05-07T17:49:13.407Z,94800.38
2019-05-07T17:51:46.370Z,94799.56
2019-05-07T17:54:15.883Z,94798.06
2019-05-07T17:56:45.527Z,94804.95
2019-05-07T17:59:15.059Z,94804.34
2019-05-07T18:02:02.180Z,94802.34
2019-05-07T18:04:47.650Z,94808.08
2019-05-07T18:07:05.296Z,94812.50
2019-05-07T18:09:36.884Z,94810.63
2019-05-07T18:12:06.436Z,94810.72
2019-05-07T18:14:36.305Z,94818.37
2019-05-07T18:17:14.393Z,94816.23
2019-05-07T18:19:45.674Z,94823.55
2019-05-07T18:22:15.202Z,94820.48
2019-05-07T18:24:46.829Z,94827.91
2019-05-07T18:27:25.900Z,94830.71
2019-05-07T18:29:55.380Z,94827.95
2019-05-07T18:32:32.388Z,94830.42
2019-05-07T18:35:02.429Z,94830.22
2019-05-07T18:37:32.657Z,94824.37
2019-05-07T18:40:02.629Z,94827.30
2019-05-07T18:42:32.814Z,94829.41
2019-05-07T18:45:02.320Z,94828.22
2019-05-07T18:47:33.144Z,94832.25
2019-05-07T18:50:04.433Z,94829.41
2019-05-07T18:52:33.924Z,94832.45
2019-05-07T18:55:03.418Z,94826.89
2019-05-07T18:57:32.949Z,94832.75
2019-05-07T19:00:05.180Z,94829.18
2019-05-07T19:02:33.780Z,94831.95
2019-05-07T19:05:03.448Z,94834.86
2019-05-07T19:07:32.929Z,94828.45
2019-05-07T19:10:02.805Z,94838.08
2019-05-07T19:12:34.090Z,94835.95
2019-05-07T19:15:03.859Z,94843.75
2019-05-07T19:17:33.551Z,94837.06
2019-05-07T19:20:03.493Z,94846.85
2019-05-07T19:22:33.251Z,94838.86
2019-05-07T19:25:03.181Z,94839.52
2019-05-07T19:27:32.924Z,94832.97
2019-05-07T19:30:02.478Z,94834.95
2019-05-07T19:32:32.403Z,94844.91
2019-05-07T19:35:04.302Z,94850.42
2019-05-07T19:37:33.880Z,94848.63
2019-05-07T19:40:03.398Z,94851.89
2019-05-07T19:42:32.915Z,94847.66
2019-05-07T19:45:02.767Z,94849.61
2019-05-07T19:47:32.814Z,94856.94
2019-05-07T19:50:02.444Z,94852.91
2019-05-07T19:52:33.187Z,94857.11
2019-05-07T19:55:04.856Z,94859.17
2019-05-07T19:57:39.173Z,94858.97
2019-05-07T20:00:09.292Z,94859.66
2019-05-07T20:02:43.814Z,94864.96
2019-05-07T20:05:13.427Z,94854.21
2019-05-07T20:07:42.973Z,94867.94
2019-05-07T20:10:14.494Z,94860.49
2019-05-07T20:12:44.017Z,94849.05
2019-05-07T20:15:13.828Z,94853.31
2019-05-07T20:17:43.345Z,94858.17
2019-05-07T20:20:13.715Z,94856.64
2019-05-07T20:22:43.286Z,94860.20
2019-05-07T20:25:18.780Z,94860.31
2019-05-07T20:27:43.986Z,94854.13
2019-05-07T20:30:13.486Z,94854.78
2019-05-07T20:32:42.955Z,94860.78
2019-05-07T20:35:13.265Z,94866.98
2019-05-07T20:37:42.731Z,94857.86
2019-05-07T20:40:12.501Z,94865.45
2019-05-07T20:42:42.807Z,94851.31
2019-05-07T20:45:12.481Z,94862.73
2019-05-07T20:47:42.238Z,94863.22
2019-05-07T20:50:12.715Z,94860.23
2019-05-07T20:52:42.370Z,94859.14
2019-05-07T20:55:30.848Z,94857.14
2019-05-07T20:57:58.284Z,94864.64
2019-05-07T21:00:28.669Z,94862.09
2019-05-07T21:03:23.397Z,94863.71
2019-05-07T21:05:53.231Z,94864.35
2019-05-07T21:08:23.112Z,94862.11
2019-05-07T21:10:53.759Z,94866.32
2019-05-07T21:13:30.396Z,94863.39
2019-05-07T21:15:54.854Z,94863.54
2019-05-07T21:18:24.357Z,94863.05
2019-05-07T21:20:53.871Z,94862.77
2019-05-07T21:23:23.490Z,94861.98
2019-05-07T21:25:53.280Z,94856.16
2019-05-07T21:28:22.882Z,94859.38
2019-05-07T21:30:52.503Z,94861.52
2019-05-07T21:33:22.856Z,94860.36
2019-05-07T21:35:52.660Z,94856.13
2019-05-07T21:38:24.148Z,94851.34
2019-05-07T21:40:53.694Z,94849.61
2019-05-07T21:43:23.162Z,94851.58
2019-05-07T21:45:53.120Z,94845.41
2019-05-07T21:48:22.754Z,94842.80
2019-05-07T21:50:52.617Z,94851.72
2019-05-07T21:53:32.360Z,94846.19
2019-05-07T21:56:16.256Z,94854.03
2019-05-07T21:58:53.924Z,94856.45
2019-05-07T22:01:32.579Z,94854.02
2019-05-07T22:04:01.973Z,94858.41
2019-05-07T22:06:31.681Z,94859.38
2019-05-07T22:09:01.984Z,94860.67
2019-05-07T22:11:32.325Z,94857.20
2019-05-07T22:14:02.236Z,94867.45
2019-05-07T22:16:32.877Z,94866.16
2019-05-07T22:19:02.737Z,94866.41
2019-05-07T22:21:34.303Z,94868.59
2019-05-07T22:24:03.604Z,94868.77
2019-05-07T22:26:33.079Z,94859.95
2019-05-07T22:29:03.207Z,94859.95
2019-05-07T22:31:44.244Z,94870.23
2019-05-07T22:34:27.712Z,94865.69
2019-05-07T22:36:57.211Z,94861.02
2019-05-07T22:39:26.889Z,94864.59
2019-05-07T22:41:56.408Z,94865.28
2019-05-07T22:44:26.472Z,94869.69
2019-05-07T22:46:57.986Z,94869.86
2019-05-07T22:49:27.452Z,94868.20
2019-05-07T22:51:56.921Z,94874.58
2019-05-07T22:54:26.466Z,94871.53
2019-05-07T22:57:14.613Z,94874.41
2019-05-07T22:59:44.073Z,94875.27
2019-05-07T23:02:13.572Z,94871.39
2019-05-07T23:04:43.269Z,94858.35
2019-05-07T23:07:12.883Z,94869.94
2019-05-07T23:09:44.867Z,94863.80
2019-05-07T23:12:13.629Z,94866.34
2019-05-07T23:14:43.095Z,94866.20
2019-05-07T23:17:12.711Z,94856.87
2019-05-07T23:19:42.177Z,94852.47
2019-05-07T23:22:13.535Z,94854.67
2019-05-07T23:24:42.926Z,94860.05
2019-05-07T23:27:14.794Z,94859.67
2019-05-07T23:29:43.966Z,94862.48
2019-05-07T23:32:13.811Z,94860.25
2019-05-07T23:34:43.295Z,94863.50
2019-05-07T23:37:12.795Z,94858.28
2019-05-07T23:39:43.948Z,94852.14
2019-05-07T23:42:17.295Z,94860.23
2019-05-07T23:44:46.786Z,94860.55
2019-05-07T23:47:16.284Z,94858.92
2019-05-07T23:49:45.794Z,94867.72
2019-05-07T23:52:15.289Z,94858.60
2019-05-07T23:54:44.792Z,94857.94
2019-05-07T23:57:15.427Z,94856.90
2019-05-07T23:59:45.049Z,94859.83
